Time;durP1;ratioP1;P1;durP2;ratioP2;P2;SDS_P1;SDS_P2;PMS_P1;PMS_P2;Temp;Humidity;BMP_temperature;BMP_pressure;BME280_temperature;BME280_humidity;BME280_pressure;Samples;Min_cycle;Max_cycle;Signal;HPM_P1;HPM_P2
2022/06/13 00:02:40;;;;;;;2.75;1.13;;;;;;;;;;5032035;28;20047;-90
2022/06/13 00:05:28;;;;;;;1.80;0.90;;;;;;;;;;5032260;28;20090;-89
2022/06/13 00:08:15;;;;;;;2.67;1.00;;;;;;;;;;5057930;28;20037;-88
2022/06/13 00:11:05;;;;;;;1.83;1.00;;;;;;;;;;5032693;28;20521;-89
2022/06/13 00:13:55;;;;;;;3.33;1.08;;;;;;;;;;5031291;28;20045;-89
2022/06/13 00:16:40;;;;;;;3.47;1.15;;;;;;;;;;5030686;28;20446;-84
2022/06/13 00:19:26;;;;;;;2.72;1.08;;;;;;;;;;5029164;28;20037;-90
2022/06/13 00:22:15;;;;;;;2.50;0.88;;;;;;;;;;5045584;28;20049;-90
2022/06/13 00:25:03;;;;;;;2.10;0.80;;;;;;;;;;5057589;28;20033;-90
2022/06/13 00:27:48;;;;;;;3.88;1.00;;;;;;;;;;5030672;28;20037;-91
2022/06/13 00:30:35;;;;;;;2.53;0.80;;;;;;;;;;5044352;28;20033;-90
2022/06/13 00:33:24;;;;;;;2.88;1.30;;;;;;;;;;5030489;28;20040;-91
2022/06/13 00:36:13;;;;;;;2.47;1.30;;;;;;;;;;5032818;28;20037;-91
2022/06/13 00:39:00;;;;;;;1.50;0.70;;;;;;;;;;5044068;28;20067;-87
2022/06/13 00:41:47;;;;;;;2.63;0.95;;;;;;;;;;5030514;28;20024;-90
2022/06/13 00:44:34;;;;;;;2.70;1.33;;;;;;;;;;5044212;28;20052;-90
2022/06/13 00:47:20;;;;;;;2.10;0.80;;;;;;;;;;5044248;28;20032;-90
2022/06/13 00:50:08;;;;;;;1.88;1.15;;;;;;;;;;5044722;28;20040;-89
2022/06/13 00:53:11;;;;;;;4.00;1.30;;;;;;;;;;5044087;28;20068;-90
2022/06/13 00:56:01;;;;;;;3.17;1.23;;;;;;;;;;5030754;28;20028;-89
2022/06/13 00:58:56;;;;;;;3.30;1.00;;;;;;;;;;5030776;28;20059;-89
2022/06/13 01:01:45;;;;;;;2.58;0.98;;;;;;;;;;5044410;28;20040;-89
2022/06/13 01:04:32;;;;;;;3.35;1.25;;;;;;;;;;5030124;28;20051;-90
2022/06/13 01:07:20;;;;;;;3.38;1.10;;;;;;;;;;5030646;28;20079;-87
2022/06/13 01:13:13;;;;;;;1.95;1.20;;;;;;;;;;5049099;28;20044;-91
2022/06/13 01:16:29;;;;;;;3.72;1.30;;;;;;;;;;5044715;28;20044;-90
2022/06/13 01:19:39;;;;;;;3.28;1.13;;;;;;;;;;5046210;28;20150;-90
2022/06/13 01:22:46;;;;;;;3.90;1.08;;;;;;;;;;5059564;28;20577;-90
2022/06/13 01:25:50;;;;;;;3.72;0.85;;;;;;;;;;5058807;28;20047;-90
2022/06/13 01:29:00;;;;;;;2.20;1.20;;;;;;;;;;5058621;28;20549;-91
2022/06/13 01:32:07;;;;;;;3.42;1.20;;;;;;;;;;5057769;28;20094;-90
2022/06/13 01:35:31;;;;;;;3.15;1.30;;;;;;;;;;5058471;28;20041;-92
2022/06/13 01:38:23;;;;;;;2.05;1.08;;;;;;;;;;5056966;28;20036;-91
2022/06/13 01:41:28;;;;;;;2.42;1.10;;;;;;;;;;5057579;28;20043;-92
2022/06/13 01:44:53;;;;;;;3.70;1.23;;;;;;;;;;5057508;28;20090;-90
2022/06/13 01:48:05;;;;;;;3.50;1.00;;;;;;;;;;5052361;28;20036;-90
2022/06/13 01:51:36;;;;;;;4.28;1.20;;;;;;;;;;5044920;28;20044;-91
2022/06/13 01:54:42;;;;;;;2.58;1.33;;;;;;;;;;5047927;28;20049;-90
2022/06/13 01:57:32;;;;;;;1.65;0.88;;;;;;;;;;5047039;28;20036;-91
2022/06/13 02:00:27;;;;;;;3.47;1.20;;;;;;;;;;5061784;28;20047;-90
2022/06/13 02:03:27;;;;;;;2.05;1.27;;;;;;;;;;5032850;28;20521;-90
2022/06/13 02:06:24;;;;;;;2.60;1.05;;;;;;;;;;5029861;28;20029;-88
2022/06/13 02:09:17;;;;;;;2.35;1.30;;;;;;;;;;5047856;28;20048;-89
2022/06/13 02:12:05;;;;;;;3.13;1.10;;;;;;;;;;5060268;28;20490;-89
2022/06/13 02:14:55;;;;;;;2.63;1.10;;;;;;;;;;5033992;28;20044;-89
2022/06/13 02:17:46;;;;;;;3.63;1.08;;;;;;;;;;5046981;28;20499;-92
2022/06/13 02:20:37;;;;;;;3.05;1.20;;;;;;;;;;5034465;28;20048;-90
2022/06/13 02:23:27;;;;;;;4.82;1.20;;;;;;;;;;5048366;28;20097;-90
2022/06/13 02:26:19;;;;;;;2.10;1.13;;;;;;;;;;5047352;28;20032;-90
2022/06/13 02:29:21;;;;;;;3.72;1.25;;;;;;;;;;5047060;28;20036;-90
2022/06/13 02:32:21;;;;;;;2.97;1.48;;;;;;;;;;5046709;28;20044;-90
2022/06/13 02:35:18;;;;;;;1.95;0.70;;;;;;;;;;5033202;28;20040;-90
2022/06/13 02:38:27;;;;;;;3.38;1.40;;;;;;;;;;5046669;28;20048;-90
2022/06/13 02:41:20;;;;;;;4.10;1.33;;;;;;;;;;5049025;28;20037;-90
2022/06/13 02:44:07;;;;;;;;;;;;;;;;;;5060398;28;20047;-90
2022/06/13 02:47:02;;;;;;;3.58;1.30;;;;;;;;;;5060818;28;19915;-90
2022/06/13 02:50:14;;;;;;;3.63;1.17;;;;;;;;;;5059940;28;20032;-90
2022/06/13 02:53:22;;;;;;;3.50;1.20;;;;;;;;;;5062862;28;20131;-90
2022/06/13 02:56:19;;;;;;;2.88;1.45;;;;;;;;;;5059958;28;20033;-90
2022/06/13 02:59:17;;;;;;;3.33;1.30;;;;;;;;;;5059010;28;20494;-90
2022/06/13 03:02:03;;;;;;;6.93;1.73;;;;;;;;;;5061188;28;20418;-90
2022/06/13 03:04:59;;;;;;;4.45;1.65;;;;;;;;;;5046770;28;20033;-91
2022/06/13 03:07:57;;;;;;;3.85;1.42;;;;;;;;;;5045867;28;20048;-86
2022/06/13 03:10:48;;;;;;;2.63;1.55;;;;;;;;;;5044893;28;20032;-86
2022/06/13 03:13:54;;;;;;;2.63;1.15;;;;;;;;;;5046500;28;20047;-86
2022/06/13 03:16:47;;;;;;;3.53;1.40;;;;;;;;;;5046820;28;20498;-85
2022/06/13 03:19:37;;;;;;;3.65;1.42;;;;;;;;;;5043964;28;20124;-84
2022/06/13 03:22:46;;;;;;;4.45;1.77;;;;;;;;;;5045464;28;20041;-90
2022/06/13 03:25:57;;;;;;;3.63;1.40;;;;;;;;;;5059531;28;20119;-90
2022/06/13 03:28:52;;;;;;;4.70;2.03;;;;;;;;;;5045065;28;20036;-91
2022/06/13 03:31:45;;;;;;;1.63;0.90;;;;;;;;;;5045595;28;20036;-91
2022/06/13 03:34:32;;;;;;;;;;;;;;;;;;5046810;28;20418;-88
2022/06/13 03:37:26;;;;;;;4.97;1.95;;;;;;;;;;5059798;28;19966;-89
2022/06/13 03:40:19;;;;;;;3.58;1.58;;;;;;;;;;5045405;28;20487;-88
2022/06/13 03:43:09;;;;;;;3.10;1.45;;;;;;;;;;5046607;28;20051;-87
2022/06/13 03:46:04;;;;;;;3.25;1.48;;;;;;;;;;5059173;28;20098;-86
2022/06/13 03:49:05;;;;;;;2.35;0.98;;;;;;;;;;5045651;28;20078;-85
2022/06/13 03:51:53;;;;;;;2.63;1.38;;;;;;;;;;5057677;28;20033;-84
2022/06/13 03:54:45;;;;;;;2.47;1.35;;;;;;;;;;5044254;28;20037;-83
2022/06/13 03:57:35;;;;;;;;;;;;;;;;;;5044560;28;20047;-83
2022/06/13 04:00:39;;;;;;;3.20;1.50;;;;;;;;;;5057691;28;20008;-83
2022/06/13 04:03:26;;;;;;;3.65;1.45;;;;;;;;;;5044604;28;20044;-85
2022/06/13 04:06:30;;;;;;;3.97;1.15;;;;;;;;;;5044025;28;20453;-84
2022/06/13 04:09:18;;;;;;;3.83;1.20;;;;;;;;;;5058245;28;20044;-83
2022/06/13 04:12:10;;;;;;;4.30;1.30;;;;;;;;;;5042986;28;20037;-83
2022/06/13 04:15:04;;;;;;;3.97;1.30;;;;;;;;;;5058244;28;20052;-83
2022/06/13 04:18:05;;;;;;;3.65;1.58;;;;;;;;;;5057949;28;20040;-83
2022/06/13 04:21:05;;;;;;;4.80;1.40;;;;;;;;;;5057019;28;20098;-83
2022/06/13 04:24:34;;;;;;;2.05;0.98;;;;;;;;;;5043823;28;20045;-83
2022/06/13 04:27:29;;;;;;;2.05;1.10;;;;;;;;;;5047187;28;20036;-83
2022/06/13 04:30:24;;;;;;;4.28;1.48;;;;;;;;;;5044729;28;20113;-83
2022/06/13 04:33:25;;;;;;;3.45;1.48;;;;;;;;;;5042384;28;20044;-83
2022/06/13 04:36:11;;;;;;;2.63;1.27;;;;;;;;;;5057436;28;20041;-83
2022/06/13 04:39:00;;;;;;;5.82;1.90;;;;;;;;;;5043291;28;20043;-90
2022/06/13 04:41:46;;;;;;;4.75;1.40;;;;;;;;;;5058277;28;20418;-87
2022/06/13 04:44:32;;;;;;;4.88;1.90;;;;;;;;;;5043934;28;20529;-83
2022/06/13 04:47:18;;;;;;;5.43;2.33;;;;;;;;;;5039125;28;20576;-82
2022/06/13 04:50:04;;;;;;;4.47;1.67;;;;;;;;;;5022246;28;20064;-82
2022/06/13 04:52:50;;;;;;;6.22;2.00;;;;;;;;;;5042722;28;20036;-84
2022/06/13 04:55:41;;;;;;;4.30;1.92;;;;;;;;;;5041524;28;20032;-83
2022/06/13 04:58:27;;;;;;;5.07;2.10;;;;;;;;;;5028607;28;20036;-84
2022/06/13 05:01:36;;;;;;;10.25;2.97;;;;;;;;;;5057360;28;20040;-84
2022/06/13 05:04:29;;;;;;;6.60;2.17;;;;;;;;;;5030151;28;20037;-83
2022/06/13 05:07:19;;;;;;;4.35;1.73;;;;;;;;;;5042951;28;20127;-82
2022/06/13 05:10:06;;;;;;;6.00;2.75;;;;;;;;;;5042366;28;20047;-83
2022/06/13 05:12:52;;;;;;;4.80;2.15;;;;;;;;;;5042158;28;20045;-83
2022/06/13 05:15:37;;;;;;;4.03;2.05;;;;;;;;;;5041997;28;20127;-82
2022/06/13 05:18:35;;;;;;;6.93;2.08;;;;;;;;;;5043158;28;20037;-83
2022/06/13 05:21:33;;;;;;;6.70;2.63;;;;;;;;;;5055624;28;20037;-82
2022/06/13 05:24:35;;;;;;;7.72;2.17;;;;;;;;;;5056518;28;20041;-83
2022/06/13 05:27:21;;;;;;;8.85;3.58;;;;;;;;;;5056450;28;20047;-84
2022/06/13 05:30:15;;;;;;;10.57;7.13;;;;;;;;;;5041353;28;20048;-83
2022/06/13 05:33:00;;;;;;;13.95;8.10;;;;;;;;;;5042774;28;20036;-82
2022/06/13 05:35:46;;;;;;;11.95;5.93;;;;;;;;;;5040796;28;20064;-83
2022/06/13 05:38:39;;;;;;;8.93;5.32;;;;;;;;;;5040720;28;20037;-82
2022/06/13 05:41:24;;;;;;;11.23;4.68;;;;;;;;;;5042582;28;20044;-80
2022/06/13 05:44:10;;;;;;;9.43;3.97;;;;;;;;;;5042326;28;20040;-83
2022/06/13 05:46:56;;;;;;;12.20;4.32;;;;;;;;;;5041946;28;20033;-82
2022/06/13 05:49:44;;;;;;;10.32;4.38;;;;;;;;;;5021820;28;20044;-82
2022/06/13 05:52:29;;;;;;;13.25;4.22;;;;;;;;;;5020715;28;20032;-84
2022/06/13 05:55:15;;;;;;;12.30;4.93;;;;;;;;;;5027776;28;20028;-83
2022/06/13 05:58:01;;;;;;;15.27;4.72;;;;;;;;;;5028712;28;20047;-83
2022/06/13 06:00:49;;;;;;;11.90;4.60;;;;;;;;;;5042961;28;20072;-84
2022/06/13 06:03:35;;;;;;;12.55;5.93;;;;;;;;;;5041429;28;20442;-84
2022/06/13 06:06:23;;;;;;;14.25;6.65;;;;;;;;;;5029485;28;20040;-83
2022/06/13 06:09:10;;;;;;;14.18;6.30;;;;;;;;;;5042732;28;20041;-85
2022/06/13 06:11:55;;;;;;;13.20;6.13;;;;;;;;;;5052555;28;20041;-86
2022/06/13 06:14:21;;;;;;;15.40;6.07;;;;;;;;;;5037882;28;20122;-89
2022/06/13 06:16:48;;;;;;;19.35;8.60;;;;;;;;;;5038114;28;20107;-90
2022/06/13 06:19:13;;;;;;;17.30;8.52;;;;;;;;;;5037637;28;20044;-89
2022/06/13 06:21:39;;;;;;;23.33;9.30;;;;;;;;;;5035974;28;20059;-85
2022/06/13 06:24:05;;;;;;;28.45;10.45;;;;;;;;;;5020865;28;20087;-87
2022/06/13 06:26:31;;;;;;;21.88;10.60;;;;;;;;;;5020766;28;20039;-87
2022/06/13 06:28:58;;;;;;;21.73;11.40;;;;;;;;;;5020755;28;20115;-88
2022/06/13 06:31:24;;;;;;;25.27;10.73;;;;;;;;;;5021032;28;20035;-87
2022/06/13 06:33:51;;;;;;;20.98;10.00;;;;;;;;;;5020994;28;20063;-87
2022/06/13 06:36:17;;;;;;;22.52;10.73;;;;;;;;;;5020854;28;20067;-87
2022/06/13 06:38:45;;;;;;;15.05;8.45;;;;;;;;;;5037188;28;20042;-87
2022/06/13 06:41:14;;;;;;;19.83;7.78;;;;;;;;;;5004944;28;20444;-87
2022/06/13 06:43:41;;;;;;;14.15;6.65;;;;;;;;;;5040661;28;20824;-88
2022/06/13 06:46:08;;;;;;;15.23;6.93;;;;;;;;;;5024111;28;20079;-87
2022/06/13 06:48:36;;;;;;;14.43;6.88;;;;;;;;;;5008015;28;20422;-87
2022/06/13 06:51:05;;;;;;;13.65;5.43;;;;;;;;;;5040289;28;20063;-87
2022/06/13 06:59:53;;;;;;;12.88;6.22;;;;;;;;;;5024105;28;20771;-87
2022/06/13 07:02:08;;;;;;;15.65;4.93;;;;;;;;;;4966225;28;20138;-87
2022/06/13 07:04:33;;;;;;;9.15;4.18;;;;;;;;;;4977470;28;20084;-88
2022/06/13 07:06:58;;;;;;;10.07;4.10;;;;;;;;;;4976909;28;20488;-87
2022/06/13 07:09:25;;;;;;;14.50;4.82;;;;;;;;;;4976835;28;20065;-87
2022/06/13 07:11:56;;;;;;;7.40;3.70;;;;;;;;;;4960842;28;20157;-88
2022/06/13 07:14:26;;;;;;;10.60;3.80;;;;;;;;;;5015830;28;20053;-87
2022/06/13 07:16:52;;;;;;;9.82;3.65;;;;;;;;;;5039979;28;20036;-88
2022/06/13 07:19:18;;;;;;;8.25;4.07;;;;;;;;;;5023361;28;20032;-86
2022/06/13 07:21:43;;;;;;;10.55;4.32;;;;;;;;;;5023253;28;20490;-85
2022/06/13 07:24:10;;;;;;;9.57;3.80;;;;;;;;;;5039822;28;20051;-86
2022/06/13 07:26:36;;;;;;;7.70;3.22;;;;;;;;;;5006743;28;20494;-86
2022/06/13 07:29:01;;;;;;;10.77;4.25;;;;;;;;;;5039540;28;20037;-87
2022/06/13 07:31:35;;;;;;;7.55;2.83;;;;;;;;;;5023073;28;20039;-87
2022/06/13 07:34:01;;;;;;;9.75;3.20;;;;;;;;;;5039922;28;20025;-86
2022/06/13 07:36:26;;;;;;;9.07;4.07;;;;;;;;;;5039260;28;20086;-86
2022/06/13 07:38:53;;;;;;;6.80;2.95;;;;;;;;;;5039438;28;20047;-86
2022/06/13 07:41:21;;;;;;;7.90;2.47;;;;;;;;;;5039266;28;20036;-86
2022/06/13 07:43:46;;;;;;;8.95;3.05;;;;;;;;;;5026117;28;20132;-86
2022/06/13 07:46:11;;;;;;;8.55;3.20;;;;;;;;;;5035812;28;20495;-85
2022/06/13 07:48:37;;;;;;;5.93;2.55;;;;;;;;;;5019316;28;20087;-86
2022/06/13 07:51:05;;;;;;;9.23;2.58;;;;;;;;;;5036081;28;20037;-88
2022/06/13 07:53:32;;;;;;;7.43;3.08;;;;;;;;;;5036435;28;20033;-86
2022/06/13 07:55:58;;;;;;;7.35;3.08;;;;;;;;;;5038097;28;20053;-87
2022/06/13 07:58:36;;;;;;;9.02;2.88;;;;;;;;;;5039074;28;20143;-87
2022/06/13 08:01:01;;;;;;;10.32;3.00;;;;;;;;;;5022676;28;20055;-88
2022/06/13 08:03:29;;;;;;;8.90;3.28;;;;;;;;;;5022606;28;20024;-88
2022/06/13 08:05:58;;;;;;;17.67;7.82;;;;;;;;;;5039087;28;20506;-88
2022/06/13 08:08:24;;;;;;;18.13;8.50;;;;;;;;;;5039116;28;20044;-88
2022/06/13 08:10:50;;;;;;;17.38;7.03;;;;;;;;;;5039202;28;20047;-87
2022/06/13 08:13:16;;;;;;;13.63;5.43;;;;;;;;;;5043719;28;20028;-88
2022/06/13 08:15:42;;;;;;;9.38;5.35;;;;;;;;;;5037127;28;20079;-88
2022/06/13 08:18:11;;;;;;;8.98;3.55;;;;;;;;;;5005995;28;20126;-87
2022/06/13 08:20:38;;;;;;;9.18;4.07;;;;;;;;;;5021739;28;20491;-87
2022/06/13 08:23:08;;;;;;;12.15;3.47;;;;;;;;;;5022316;28;20028;-88
2022/06/13 08:25:36;;;;;;;8.75;3.08;;;;;;;;;;5051910;28;20097;-88
2022/06/13 08:28:03;;;;;;;10.30;2.72;;;;;;;;;;5031015;28;20044;-89
2022/06/13 08:31:04;;;;;;;7.50;2.97;;;;;;;;;;5039131;28;20029;-89
2022/06/13 08:33:29;;;;;;;8.15;2.78;;;;;;;;;;5038586;28;20128;-88
2022/06/13 08:35:56;;;;;;;6.43;2.38;;;;;;;;;;5022917;28;20115;-88
2022/06/13 08:38:25;;;;;;;7.05;2.95;;;;;;;;;;5039031;28;20418;-89
2022/06/13 08:41:11;;;;;;;7.80;2.10;;;;;;;;;;5038706;28;20036;-89
2022/06/13 08:43:43;;;;;;;10.77;2.55;;;;;;;;;;5055272;28;20044;-89
2022/06/13 08:46:37;;;;;;;9.50;3.20;;;;;;;;;;5038259;28;20186;-89
2022/06/13 08:49:20;;;;;;;8.60;2.63;;;;;;;;;;5055040;28;20298;-89
2022/06/13 08:51:47;;;;;;;9.85;2.17;;;;;;;;;;5039652;28;20521;-88
2022/06/13 08:54:19;;;;;;;5.00;2.05;;;;;;;;;;5021803;28;20033;-89
2022/06/13 08:56:45;;;;;;;7.30;2.27;;;;;;;;;;5034769;28;20068;-88
2022/06/13 08:59:34;;;;;;;5.93;2.00;;;;;;;;;;5002657;28;20035;-89
2022/06/13 09:02:12;;;;;;;4.90;1.75;;;;;;;;;;5003089;28;20094;-89
2022/06/13 09:04:55;;;;;;;6.22;2.28;;;;;;;;;;5018992;28;20415;-89
2022/06/13 09:07:27;;;;;;;6.45;2.35;;;;;;;;;;5035323;28;20037;-89
2022/06/13 09:10:09;;;;;;;5.68;1.52;;;;;;;;;;5002614;28;20058;-89
2022/06/13 09:12:41;;;;;;;;;;;;;;;;;;5019152;28;20107;-88
2022/06/13 09:15:31;;;;;;;6.53;2.00;;;;;;;;;;5018433;28;19924;-89
2022/06/13 09:18:19;;;;;;;6.32;2.10;;;;;;;;;;5010644;28;20029;-88
2022/06/13 09:21:11;;;;;;;7.57;2.28;;;;;;;;;;5007461;28;20518;-90
2022/06/13 09:24:00;;;;;;;7.70;2.35;;;;;;;;;;5021574;28;20104;-89
2022/06/13 09:26:37;;;;;;;11.05;3.20;;;;;;;;;;5020540;28;20071;-88
2022/06/13 09:29:17;;;;;;;7.63;3.20;;;;;;;;;;5005297;28;20530;-89
2022/06/13 09:31:45;;;;;;;9.20;3.58;;;;;;;;;;5022009;28;20521;-89
2022/06/13 09:34:46;;;;;;;8.60;3.05;;;;;;;;;;5005337;28;20028;-90
2022/06/13 09:37:34;;;;;;;7.88;2.55;;;;;;;;;;5054353;28;20041;-88
2022/06/13 09:40:02;;;;;;;6.75;1.85;;;;;;;;;;5054752;28;20086;-90
2022/06/13 09:43:01;;;;;;;6.82;2.33;;;;;;;;;;5021936;28;20082;-90
2022/06/13 09:45:40;;;;;;;8.02;2.75;;;;;;;;;;5023682;28;20387;-90
2022/06/13 09:48:16;;;;;;;6.57;2.30;;;;;;;;;;5017323;28;20041;-90
2022/06/13 09:50:52;;;;;;;5.85;2.00;;;;;;;;;;5051265;28;20041;-89
2022/06/13 09:53:34;;;;;;;4.88;2.20;;;;;;;;;;5035057;28;20060;-88
2022/06/13 09:56:27;;;;;;;5.28;2.05;;;;;;;;;;5034473;28;20037;-89
2022/06/13 09:59:30;;;;;;;6.50;1.67;;;;;;;;;;5018511;28;20045;-88
2022/06/13 10:02:08;;;;;;;7.40;2.10;;;;;;;;;;5034257;28;20119;-88
2022/06/13 10:04:43;;;;;;;8.48;1.75;;;;;;;;;;5029926;28;20059;-88
2022/06/13 10:07:16;;;;;;;9.70;1.63;;;;;;;;;;5033939;28;20033;-88
2022/06/13 10:09:45;;;;;;;6.75;1.92;;;;;;;;;;5034005;28;20049;-88
2022/06/13 10:12:27;;;;;;;4.90;2.03;;;;;;;;;;5033943;28;20384;-89
2022/06/13 10:15:18;;;;;;;5.63;1.95;;;;;;;;;;5017619;28;20044;-88
2022/06/13 10:18:09;;;;;;;5.60;1.90;;;;;;;;;;5019900;28;20060;-89
2022/06/13 10:20:47;;;;;;;6.50;1.75;;;;;;;;;;5031521;28;20060;-88
2022/06/13 10:23:50;;;;;;;7.18;2.03;;;;;;;;;;5008590;28;20537;-89
2022/06/13 10:26:46;;;;;;;5.97;2.13;;;;;;;;;;5057437;28;20551;-89
2022/06/13 10:29:31;;;;;;;6.65;1.80;;;;;;;;;;5042369;28;20051;-91
2022/06/13 10:32:01;;;;;;;5.10;1.70;;;;;;;;;;5041901;28;20079;-89
2022/06/13 10:34:27;;;;;;;6.20;1.73;;;;;;;;;;5041197;28;20025;-89
2022/06/13 10:37:05;;;;;;;6.13;2.50;;;;;;;;;;5041606;28;20048;-87
2022/06/13 10:39:32;;;;;;;7.68;2.10;;;;;;;;;;5041591;28;20033;-90
2022/06/13 10:42:02;;;;;;;8.20;2.38;;;;;;;;;;5041600;28;20039;-90
2022/06/13 10:44:27;;;;;;;6.45;2.00;;;;;;;;;;5040915;28;20032;-90
2022/06/13 10:46:59;;;;;;;5.60;2.13;;;;;;;;;;5024838;28;20398;-90
2022/06/13 10:49:28;;;;;;;5.82;1.77;;;;;;;;;;5020968;28;20037;-90
2022/06/13 10:52:05;;;;;;;5.80;2.50;;;;;;;;;;5033410;28;20028;-90
2022/06/13 10:54:34;;;;;;;6.13;2.08;;;;;;;;;;5028572;28;20028;-90
2022/06/13 10:57:12;;;;;;;4.68;1.92;;;;;;;;;;5038010;28;20119;-90
2022/06/13 11:00:06;;;;;;;4.53;2.03;;;;;;;;;;5004721;28;20037;-90
2022/06/13 11:02:37;;;;;;;7.13;2.78;;;;;;;;;;5037809;28;20214;-90
2022/06/13 11:05:14;;;;;;;11.50;2.40;;;;;;;;;;5054128;28;20028;-90
2022/06/13 11:07:48;;;;;;;5.78;2.90;;;;;;;;;;5010593;28;20513;-90
2022/06/13 11:10:35;;;;;;;10.88;3.58;;;;;;;;;;5037403;28;20033;-90
2022/06/13 11:13:02;;;;;;;6.30;3.28;;;;;;;;;;5020721;28;20037;-90
2022/06/13 11:24:13;;;;;;;;;;;;;;;;;;5023510;28;20037;-89
2022/06/13 11:29:28;;;;;;;6.25;2.10;;;;;;;;;;5036644;28;20469;-89
2022/06/13 11:32:00;;;;;;;6.78;1.83;;;;;;;;;;5021377;28;20063;-89
2022/06/13 11:34:41;;;;;;;5.40;1.85;;;;;;;;;;5020365;28;20519;-89
2022/06/13 11:37:17;;;;;;;4.82;1.73;;;;;;;;;;5037466;28;20033;-90
2022/06/13 11:39:45;;;;;;;4.75;2.25;;;;;;;;;;5020176;28;20430;-88
2022/06/13 11:42:26;;;;;;;5.22;2.03;;;;;;;;;;5025868;28;20418;-89
2022/06/13 11:45:21;;;;;;;6.18;2.05;;;;;;;;;;5032412;28;20036;-87
2022/06/13 11:47:49;;;;;;;5.35;1.52;;;;;;;;;;5053270;28;20036;-90
2022/06/13 11:50:18;;;;;;;4.60;1.42;;;;;;;;;;5003728;28;20098;-88
2022/06/13 11:55:31;;;;;;;5.78;1.90;;;;;;;;;;5032688;28;20039;-88
2022/06/13 11:58:02;;;;;;;7.85;1.77;;;;;;;;;;5036081;28;20056;-89
2022/06/13 12:00:48;;;;;;;5.95;2.05;;;;;;;;;;5036565;28;20060;-90
2022/06/13 12:03:20;;;;;;;5.07;1.33;;;;;;;;;;5005680;28;20025;-90
2022/06/13 12:05:48;;;;;;;5.10;1.92;;;;;;;;;;5004388;28;20028;-91
2022/06/13 12:08:14;;;;;;;3.63;2.25;;;;;;;;;;5006170;28;20045;-91
2022/06/13 12:11:01;;;;;;;5.78;1.83;;;;;;;;;;5056097;28;20483;-90
2022/06/13 12:13:31;;;;;;;4.68;1.35;;;;;;;;;;5012119;28;20463;-89
2022/06/13 12:16:34;;;;;;;5.80;1.70;;;;;;;;;;5007093;28;20028;-90
2022/06/13 12:19:05;;;;;;;9.13;1.70;;;;;;;;;;5049480;28;20059;-89
2022/06/13 12:21:38;;;;;;;6.95;1.92;;;;;;;;;;5039530;28;20040;-89
2022/06/13 12:24:28;;;;;;;8.07;1.90;;;;;;;;;;5019590;28;20049;-90
2022/06/13 12:27:18;;;;;;;5.22;1.77;;;;;;;;;;4984675;28;20043;-89
2022/06/13 12:30:28;;;;;;;5.20;1.50;;;;;;;;;;5019466;28;20487;-90
2022/06/13 12:33:02;;;;;;;5.03;1.42;;;;;;;;;;5019935;28;20064;-92
2022/06/13 12:36:02;;;;;;;4.85;1.25;;;;;;;;;;5019581;28;20043;-92
2022/06/13 12:39:16;;;;;;;3.65;1.40;;;;;;;;;;5019274;28;20036;-90
2022/06/13 12:41:47;;;;;;;6.50;1.70;;;;;;;;;;4975023;28;20042;-90
2022/06/13 12:44:50;;;;;;;4.22;1.77;;;;;;;;;;4975918;28;20038;-90
2022/06/13 12:47:49;;;;;;;4.55;1.90;;;;;;;;;;5014706;28;20124;-91
2022/06/13 12:50:39;;;;;;;4.00;1.33;;;;;;;;;;5019514;28;20060;-90
2022/06/13 12:53:38;;;;;;;2.30;1.00;;;;;;;;;;5003565;28;20057;-90
2022/06/13 12:56:31;;;;;;;3.88;1.20;;;;;;;;;;5002686;28;20131;-91
2022/06/13 12:59:19;;;;;;;2.65;1.27;;;;;;;;;;5038923;28;20055;-91
2022/06/13 13:02:12;;;;;;;3.92;1.25;;;;;;;;;;5039118;28;20047;-90
2022/06/13 13:04:41;;;;;;;5.57;1.90;;;;;;;;;;5034070;28;20029;-90
2022/06/13 13:07:49;;;;;;;4.00;1.17;;;;;;;;;;5035127;28;20033;-91
2022/06/13 13:10:38;;;;;;;5.55;1.38;;;;;;;;;;4996893;28;20593;-91
2022/06/13 13:13:18;;;;;;;3.88;0.90;;;;;;;;;;5042543;28;20033;-91
2022/06/13 13:15:59;;;;;;;3.42;1.13;;;;;;;;;;5051417;28;20033;-91
2022/06/13 13:18:28;;;;;;;2.92;0.85;;;;;;;;;;5015441;28;20087;-90
2022/06/13 13:21:50;;;;;;;3.00;0.93;;;;;;;;;;5051961;28;20033;-90
2022/06/13 13:24:35;;;;;;;3.72;1.33;;;;;;;;;;4959006;28;20042;-90
2022/06/13 13:27:07;;;;;;;4.55;0.98;;;;;;;;;;5014201;28;20048;-91
2022/06/13 13:29:35;;;;;;;4.28;1.52;;;;;;;;;;5034975;28;20044;-91
2022/06/13 13:32:26;;;;;;;1.98;0.88;;;;;;;;;;5015727;28;20042;-91
2022/06/13 13:35:10;;;;;;;4.28;0.90;;;;;;;;;;5031715;28;20459;-90
2022/06/13 13:37:39;;;;;;;2.28;0.70;;;;;;;;;;5051347;28;20041;-92
2022/06/13 13:40:32;;;;;;;2.97;0.68;;;;;;;;;;5035198;28;20025;-91
2022/06/13 13:43:09;;;;;;;2.58;0.55;;;;;;;;;;5011788;28;20376;-91
2022/06/13 13:45:49;;;;;;;3.15;0.60;;;;;;;;;;5016999;28;20502;-92
2022/06/13 13:48:27;;;;;;;2.42;0.70;;;;;;;;;;5018653;28;20036;-91
2022/06/13 13:51:31;;;;;;;3.15;0.90;;;;;;;;;;5052235;28;20057;-91
2022/06/13 13:54:03;;;;;;;2.53;0.82;;;;;;;;;;5039022;28;20514;-91
2022/06/13 13:57:00;;;;;;;2.47;0.57;;;;;;;;;;5055307;28;20048;-91
2022/06/13 13:59:30;;;;;;;2.33;0.60;;;;;;;;;;5040245;28;20103;-90
2022/06/13 14:02:08;;;;;;;1.55;0.73;;;;;;;;;;5009975;28;20540;-91
2022/06/13 14:04:44;;;;;;;2.85;0.60;;;;;;;;;;5058753;28;20032;-91
2022/06/13 14:07:27;;;;;;;2.40;0.70;;;;;;;;;;5025978;28;20123;-91
2022/06/13 14:09:57;;;;;;;2.58;0.88;;;;;;;;;;5058679;28;20037;-92
2022/06/13 14:12:25;;;;;;;2.85;0.90;;;;;;;;;;5025694;28;20034;-90
2022/06/13 14:15:02;;;;;;;0.60;0.43;;;;;;;;;;5017246;28;20068;-91
2022/06/13 14:17:42;;;;;;;2.90;0.70;;;;;;;;;;5075162;28;20033;-90
2022/06/13 14:20:17;;;;;;;2.75;1.25;;;;;;;;;;5041890;28;20059;-91
2022/06/13 14:22:43;;;;;;;2.92;0.70;;;;;;;;;;5031467;28;20503;-91
2022/06/13 14:25:16;;;;;;;3.28;0.80;;;;;;;;;;5021559;28;20037;-91
2022/06/13 14:28:20;;;;;;;1.63;0.65;;;;;;;;;;5020429;28;20515;-91
2022/06/13 14:31:07;;;;;;;3.63;0.90;;;;;;;;;;5006313;28;20498;-90
2022/06/13 14:36:48;;;;;;;2.38;0.50;;;;;;;;;;5038179;28;20033;-90
2022/06/13 14:39:54;;;;;;;1.80;0.63;;;;;;;;;;5021630;28;20037;-90
2022/06/13 14:42:52;;;;;;;1.85;0.40;;;;;;;;;;5022007;28;20033;-90
2022/06/13 14:45:20;;;;;;;1.08;0.40;;;;;;;;;;5021483;28;20033;-90
2022/06/13 14:48:11;;;;;;;2.03;0.70;;;;;;;;;;5038069;28;20082;-91
2022/06/13 14:50:56;;;;;;;3.53;0.57;;;;;;;;;;5054202;28;20025;-90
2022/06/13 14:53:28;;;;;;;2.05;1.00;;;;;;;;;;5037981;28;20499;-91
2022/06/13 14:56:09;;;;;;;1.03;0.37;;;;;;;;;;5013900;28;20033;-90
2022/06/13 14:58:49;;;;;;;2.50;0.60;;;;;;;;;;5037600;28;20287;-91
2022/06/13 15:01:48;;;;;;;2.42;0.73;;;;;;;;;;5021276;28;20033;-91
2022/06/13 15:04:20;;;;;;;2.05;0.60;;;;;;;;;;5007552;28;20033;-90
2022/06/13 15:06:58;;;;;;;2.15;0.57;;;;;;;;;;5037854;28;20041;-91
2022/06/13 15:09:25;;;;;;;3.75;2.13;;;;;;;;;;5021279;28;20037;-91
2022/06/13 15:11:59;;;;;;;9.65;3.83;;;;;;;;;;5037822;28;20041;-90
2022/06/13 15:14:39;;;;;;;6.88;3.28;;;;;;;;;;5021309;28;20485;-89
2022/06/13 15:17:08;;;;;;;7.05;2.95;;;;;;;;;;5004874;28;20056;-90
2022/06/13 15:19:41;;;;;;;6.38;3.17;;;;;;;;;;5020402;28;20606;-90
2022/06/13 15:22:15;;;;;;;6.75;2.90;;;;;;;;;;5003889;28;20083;-91
2022/06/13 15:24:46;;;;;;;5.63;2.70;;;;;;;;;;5019984;28;20033;-89
2022/06/13 15:27:15;;;;;;;4.60;2.10;;;;;;;;;;5004052;28;20025;-89
2022/06/13 15:29:40;;;;;;;8.52;2.70;;;;;;;;;;5036602;28;20041;-89
2022/06/13 15:32:39;;;;;;;5.57;1.98;;;;;;;;;;5020504;28;20617;-90
2022/06/13 15:35:22;;;;;;;5.05;1.88;;;;;;;;;;5020395;28;20163;-90
2022/06/13 15:37:51;;;;;;;5.18;2.08;;;;;;;;;;5004011;28;20040;-89
2022/06/13 15:40:21;;;;;;;6.53;2.20;;;;;;;;;;5020536;28;20578;-88
2022/06/13 15:42:48;;;;;;;4.35;1.70;;;;;;;;;;5037099;28;20056;-89
2022/06/13 15:45:15;;;;;;;4.38;1.40;;;;;;;;;;5025408;28;20041;-90
2022/06/13 15:47:47;;;;;;;4.05;1.83;;;;;;;;;;5022207;28;20028;-88
2022/06/13 15:50:23;;;;;;;4.70;2.03;;;;;;;;;;5007349;28;20025;-89
2022/06/13 15:52:50;;;;;;;5.35;1.17;;;;;;;;;;5039609;28;20127;-89
2022/06/13 15:55:17;;;;;;;3.42;0.80;;;;;;;;;;5021834;28;20111;-81
2022/06/13 15:57:51;;;;;;;7.70;1.70;;;;;;;;;;5022355;28;20609;-82
2022/06/13 16:00:37;;;;;;;6.10;1.40;;;;;;;;;;5038424;28;20544;-81
2022/06/13 16:03:18;;;;;;;4.88;1.00;;;;;;;;;;5037807;28;20131;-82
2022/06/13 16:05:56;;;;;;;6.15;1.15;;;;;;;;;;5038397;28;20105;-83
2022/06/13 16:08:21;;;;;;;7.05;1.40;;;;;;;;;;5021913;28;20625;-82
2022/06/13 16:10:52;;;;;;;6.32;1.42;;;;;;;;;;5022056;28;20029;-83
2022/06/13 16:13:27;;;;;;;6.25;0.95;;;;;;;;;;5005449;28;20078;-82
2022/06/13 16:15:52;;;;;;;4.53;0.88;;;;;;;;;;5037606;28;20048;-83
2022/06/13 16:18:48;;;;;;;12.13;4.22;;;;;;;;;;5021958;28;20036;-84
2022/06/13 16:21:18;;;;;;;15.70;4.63;;;;;;;;;;5021851;28;20541;-84
2022/06/13 16:23:54;;;;;;;17.15;7.53;;;;;;;;;;5033473;28;20036;-84
2022/06/13 16:26:21;;;;;;;12.13;6.60;;;;;;;;;;5029300;28;20036;-84
2022/06/13 16:28:47;;;;;;;12.63;4.93;;;;;;;;;;5001772;28;20120;-83
2022/06/13 16:31:13;;;;;;;15.02;5.60;;;;;;;;;;5018067;28;20159;-83
2022/06/13 16:33:44;;;;;;;13.07;4.10;;;;;;;;;;5020367;28;20039;-84
2022/06/13 16:36:19;;;;;;;10.25;3.30;;;;;;;;;;5037739;28;20039;-83
2022/06/13 16:38:46;;;;;;;6.78;2.90;;;;;;;;;;5037538;28;20041;-84
2022/06/13 16:41:35;;;;;;;11.98;3.13;;;;;;;;;;5037567;28;20127;-83
2022/06/13 16:44:02;;;;;;;8.18;2.88;;;;;;;;;;5021791;28;20510;-83